ETNS

Schleswig Airport

Germany
METAR ETNS 201220Z AUTO 31010KT 9999 // ////// 14/09 Q1027 ///
Observed Flight Rules
Oct-20 @ 12:20 UTC (32 minutes ago)
Wind Visibility
310° at 10 knots 10,000+ meters
Temperatures Readings
Current 14°C / 57°F
Dewpoint 9°C / 48°F
Humidity 72%
Altimeter 30.32" Hg
Pressure 1027 hPa
Elevation 25
METAR ETNS 201220Z AUTO 31010KT 9999 // ////// 14/09 Q1027 ///
Observed Flight Rules
Oct-20 @ 12:20 UTC
(32 minutes ago)
Wind Visibility
310° at 10 knots 10,000+ meters
Temperature Dewpoint
14°C / 57°F 9°C / 48°F
Humidity Altimeter Pressure
72% 30.32" Hg 1027 hPa